sensor_id;sensor_type;location;lat;lon;timestamp;P1;durP1;ratioP1;P2;durP2;ratioP2
35530;SDS011;21637;53.352;-6.356;2023-11-18T00:00:24;0.20;;;0.20;;
35530;SDS011;21637;53.352;-6.356;2023-11-18T00:02:50;0.40;;;0.40;;
35530;SDS011;21637;53.352;-6.356;2023-11-18T00:05:16;0.38;;;0.20;;
35530;SDS011;21637;53.352;-6.356;2023-11-18T00:07:42;0.47;;;0.30;;
35530;SDS011;21637;53.352;-6.356;2023-11-18T00:10:08;0.98;;;0.40;;
35530;SDS011;21637;53.352;-6.356;2023-11-18T00:12:35;0.68;;;0.47;;
35530;SDS011;21637;53.352;-6.356;2023-11-18T00:15:04;0.88;;;0.47;;
35530;SDS011;21637;53.352;-6.356;2023-11-18T00:17:33;0.45;;;0.45;;
35530;SDS011;21637;53.352;-6.356;2023-11-18T00:19:59;0.85;;;0.52;;
35530;SDS011;21637;53.352;-6.356;2023-11-18T00:22:25;0.50;;;0.40;;
35530;SDS011;21637;53.352;-6.356;2023-11-18T00:24:52;0.30;;;0.30;;
35530;SDS011;21637;53.352;-6.356;2023-11-18T00:27:20;0.55;;;0.40;;
35530;SDS011;21637;53.352;-6.356;2023-11-18T00:29:50;0.57;;;0.35;;
35530;SDS011;21637;53.352;-6.356;2023-11-18T00:32:15;0.30;;;0.30;;
35530;SDS011;21637;53.352;-6.356;2023-11-18T00:34:41;0.30;;;0.30;;
35530;SDS011;21637;53.352;-6.356;2023-11-18T00:37:07;0.57;;;0.55;;
35530;SDS011;21637;53.352;-6.356;2023-11-18T00:39:33;0.55;;;0.40;;
35530;SDS011;21637;53.352;-6.356;2023-11-18T00:41:58;0.45;;;0.40;;
35530;SDS011;21637;53.352;-6.356;2023-11-18T00:44:24;0.30;;;0.20;;
35530;SDS011;21637;53.352;-6.356;2023-11-18T00:46:50;0.38;;;0.30;;
35530;SDS011;21637;53.352;-6.356;2023-11-18T00:49:15;0.70;;;0.70;;
35530;SDS011;21637;53.352;-6.356;2023-11-18T00:51:41;0.85;;;0.40;;
35530;SDS011;21637;53.352;-6.356;2023-11-18T00:54:07;0.90;;;0.40;;
35530;SDS011;21637;53.352;-6.356;2023-11-18T00:56:33;1.10;;;0.60;;
35530;SDS011;21637;53.352;-6.356;2023-11-18T00:58:59;0.40;;;0.35;;
35530;SDS011;21637;53.352;-6.356;2023-11-18T01:01:28;1.95;;;1.00;;
35530;SDS011;21637;53.352;-6.356;2023-11-18T01:03:53;3.58;;;1.88;;
35530;SDS011;21637;53.352;-6.356;2023-11-18T01:06:19;2.50;;;1.50;;
35530;SDS011;21637;53.352;-6.356;2023-11-18T01:08:45;4.60;;;1.38;;
35530;SDS011;21637;53.352;-6.356;2023-11-18T01:11:15;1.77;;;1.05;;
35530;SDS011;21637;53.352;-6.356;2023-11-18T01:13:44;1.17;;;0.82;;
35530;SDS011;21637;53.352;-6.356;2023-11-18T01:16:16;3.17;;;1.50;;
35530;SDS011;21637;53.352;-6.356;2023-11-18T01:18:42;1.58;;;1.23;;
35530;SDS011;21637;53.352;-6.356;2023-11-18T01:21:08;3.80;;;2.47;;
35530;SDS011;21637;53.352;-6.356;2023-11-18T01:23:35;3.60;;;2.00;;
35530;SDS011;21637;53.352;-6.356;2023-11-18T01:26:01;0.77;;;0.50;;
35530;SDS011;21637;53.352;-6.356;2023-11-18T01:28:30;1.13;;;0.75;;
35530;SDS011;21637;53.352;-6.356;2023-11-18T01:33:30;0.88;;;0.30;;
35530;SDS011;21637;53.352;-6.356;2023-11-18T01:35:57;0.22;;;0.22;;
35530;SDS011;21637;53.352;-6.356;2023-11-18T01:38:23;0.17;;;0.13;;
35530;SDS011;21637;53.352;-6.356;2023-11-18T01:40:51;0.60;;;0.43;;
35530;SDS011;21637;53.352;-6.356;2023-11-18T01:43:18;0.60;;;0.40;;
35530;SDS011;21637;53.352;-6.356;2023-11-18T01:45:44;0.38;;;0.30;;
35530;SDS011;21637;53.352;-6.356;2023-11-18T01:48:11;0.20;;;0.20;;
35530;SDS011;21637;53.352;-6.356;2023-11-18T01:50:40;1.27;;;0.35;;
35530;SDS011;21637;53.352;-6.356;2023-11-18T01:53:10;0.70;;;0.35;;
35530;SDS011;21637;53.352;-6.356;2023-11-18T01:55:39;1.13;;;0.70;;
35530;SDS011;21637;53.352;-6.356;2023-11-18T01:58:05;0.68;;;0.30;;
35530;SDS011;21637;53.352;-6.356;2023-11-18T02:00:36;0.22;;;0.20;;
35530;SDS011;21637;53.352;-6.356;2023-11-18T02:03:05;0.22;;;0.22;;
35530;SDS011;21637;53.352;-6.356;2023-11-18T02:05:31;0.20;;;0.20;;
35530;SDS011;21637;53.352;-6.356;2023-11-18T02:08:00;0.40;;;0.32;;
35530;SDS011;21637;53.352;-6.356;2023-11-18T02:10:29;0.10;;;0.10;;
35530;SDS011;21637;53.352;-6.356;2023-11-18T02:13:12;0.22;;;0.20;;
35530;SDS011;21637;53.352;-6.356;2023-11-18T02:15:45;0.20;;;0.20;;
35530;SDS011;21637;53.352;-6.356;2023-11-18T02:18:11;0.95;;;0.10;;
35530;SDS011;21637;53.352;-6.356;2023-11-18T02:20:38;0.20;;;0.20;;
35530;SDS011;21637;53.352;-6.356;2023-11-18T02:23:05;0.30;;;0.30;;
35530;SDS011;21637;53.352;-6.356;2023-11-18T02:25:33;0.73;;;0.43;;
35530;SDS011;21637;53.352;-6.356;2023-11-18T02:27:59;0.55;;;0.30;;
35530;SDS011;21637;53.352;-6.356;2023-11-18T02:30:27;0.38;;;0.30;;
35530;SDS011;21637;53.352;-6.356;2023-11-18T02:32:58;0.30;;;0.30;;
35530;SDS011;21637;53.352;-6.356;2023-11-18T02:35:38;0.30;;;0.30;;
35530;SDS011;21637;53.352;-6.356;2023-11-18T02:38:17;0.65;;;0.40;;
35530;SDS011;21637;53.352;-6.356;2023-11-18T02:40:48;0.30;;;0.30;;
35530;SDS011;21637;53.352;-6.356;2023-11-18T02:43:18;0.70;;;0.50;;
35530;SDS011;21637;53.352;-6.356;2023-11-18T02:45:44;0.40;;;0.40;;
35530;SDS011;21637;53.352;-6.356;2023-11-18T02:48:11;0.60;;;0.50;;
35530;SDS011;21637;53.352;-6.356;2023-11-18T02:50:40;0.45;;;0.40;;
35530;SDS011;21637;53.352;-6.356;2023-11-18T02:53:08;1.35;;;0.60;;
35530;SDS011;21637;53.352;-6.356;2023-11-18T02:55:34;0.40;;;0.40;;
35530;SDS011;21637;53.352;-6.356;2023-11-18T02:58:00;1.35;;;0.50;;
35530;SDS011;21637;53.352;-6.356;2023-11-18T03:00:27;0.40;;;0.40;;
35530;SDS011;21637;53.352;-6.356;2023-11-18T03:02:53;0.63;;;0.63;;
35530;SDS011;21637;53.352;-6.356;2023-11-18T03:05:19;0.47;;;0.47;;
35530;SDS011;21637;53.352;-6.356;2023-11-18T03:07:49;0.70;;;0.50;;
35530;SDS011;21637;53.352;-6.356;2023-11-18T03:10:15;0.50;;;0.50;;
35530;SDS011;21637;53.352;-6.356;2023-11-18T03:12:51;0.68;;;0.52;;
35530;SDS011;21637;53.352;-6.356;2023-11-18T03:15:18;0.47;;;0.43;;
35530;SDS011;21637;53.352;-6.356;2023-11-18T03:17:45;1.08;;;0.60;;
35530;SDS011;21637;53.352;-6.356;2023-11-18T03:20:13;1.48;;;0.52;;
35530;SDS011;21637;53.352;-6.356;2023-11-18T03:22:48;0.68;;;0.50;;
35530;SDS011;21637;53.352;-6.356;2023-11-18T03:25:15;0.70;;;0.60;;
35530;SDS011;21637;53.352;-6.356;2023-11-18T03:27:42;0.60;;;0.60;;
35530;SDS011;21637;53.352;-6.356;2023-11-18T03:30:09;0.82;;;0.80;;
35530;SDS011;21637;53.352;-6.356;2023-11-18T03:32:36;0.70;;;0.70;;
35530;SDS011;21637;53.352;-6.356;2023-11-18T03:35:03;0.63;;;0.63;;
35530;SDS011;21637;53.352;-6.356;2023-11-18T03:37:33;1.65;;;0.73;;
35530;SDS011;21637;53.352;-6.356;2023-11-18T03:40:00;0.50;;;0.50;;
35530;SDS011;21637;53.352;-6.356;2023-11-18T03:42:26;0.80;;;0.80;;
35530;SDS011;21637;53.352;-6.356;2023-11-18T03:44:54;0.82;;;0.82;;
35530;SDS011;21637;53.352;-6.356;2023-11-18T03:47:19;0.75;;;0.75;;
35530;SDS011;21637;53.352;-6.356;2023-11-18T03:49:49;0.75;;;0.75;;
35530;SDS011;21637;53.352;-6.356;2023-11-18T03:52:19;0.70;;;0.70;;
35530;SDS011;21637;53.352;-6.356;2023-11-18T03:54:45;0.73;;;0.70;;
35530;SDS011;21637;53.352;-6.356;2023-11-18T03:57:10;0.80;;;0.80;;
35530;SDS011;21637;53.352;-6.356;2023-11-18T03:59:36;0.65;;;0.65;;
35530;SDS011;21637;53.352;-6.356;2023-11-18T04:02:05;1.50;;;0.88;;
35530;SDS011;21637;53.352;-6.356;2023-11-18T04:04:32;1.50;;;0.80;;
35530;SDS011;21637;53.352;-6.356;2023-11-18T04:06:57;0.85;;;0.50;;
35530;SDS011;21637;53.352;-6.356;2023-11-18T04:09:26;0.65;;;0.65;;
35530;SDS011;21637;53.352;-6.356;2023-11-18T04:11:55;1.02;;;0.80;;
35530;SDS011;21637;53.352;-6.356;2023-11-18T04:14:20;0.95;;;0.90;;
35530;SDS011;21637;53.352;-6.356;2023-11-18T04:16:47;1.38;;;0.82;;
35530;SDS011;21637;53.352;-6.356;2023-11-18T04:19:14;0.60;;;0.60;;
35530;SDS011;21637;53.352;-6.356;2023-11-18T04:21:40;1.05;;;0.95;;
35530;SDS011;21637;53.352;-6.356;2023-11-18T04:24:06;1.25;;;0.60;;
35530;SDS011;21637;53.352;-6.356;2023-11-18T04:26:32;1.70;;;0.80;;
35530;SDS011;21637;53.352;-6.356;2023-11-18T04:28:58;0.50;;;0.45;;
35530;SDS011;21637;53.352;-6.356;2023-11-18T04:31:24;3.53;;;0.70;;
35530;SDS011;21637;53.352;-6.356;2023-11-18T04:33:50;3.00;;;0.55;;
35530;SDS011;21637;53.352;-6.356;2023-11-18T04:36:16;1.48;;;0.90;;
35530;SDS011;21637;53.352;-6.356;2023-11-18T04:38:42;1.20;;;0.60;;
35530;SDS011;21637;53.352;-6.356;2023-11-18T04:41:11;1.90;;;0.60;;
35530;SDS011;21637;53.352;-6.356;2023-11-18T04:43:36;0.90;;;0.40;;
35530;SDS011;21637;53.352;-6.356;2023-11-18T04:46:05;1.02;;;0.75;;
35530;SDS011;21637;53.352;-6.356;2023-11-18T04:48:31;2.00;;;0.70;;
35530;SDS011;21637;53.352;-6.356;2023-11-18T04:50:58;0.70;;;0.70;;
35530;SDS011;21637;53.352;-6.356;2023-11-18T04:53:23;0.98;;;0.90;;
35530;SDS011;21637;53.352;-6.356;2023-11-18T04:55:52;0.90;;;0.65;;
35530;SDS011;21637;53.352;-6.356;2023-11-18T04:58:18;0.70;;;0.70;;
35530;SDS011;21637;53.352;-6.356;2023-11-18T05:00:44;1.33;;;0.88;;
35530;SDS011;21637;53.352;-6.356;2023-11-18T05:03:09;2.65;;;1.20;;
35530;SDS011;21637;53.352;-6.356;2023-11-18T05:05:45;2.17;;;1.00;;
35530;SDS011;21637;53.352;-6.356;2023-11-18T05:08:28;1.77;;;1.00;;
35530;SDS011;21637;53.352;-6.356;2023-11-18T05:10:54;2.08;;;0.90;;
35530;SDS011;21637;53.352;-6.356;2023-11-18T05:13:20;1.38;;;0.98;;
35530;SDS011;21637;53.352;-6.356;2023-11-18T05:15:47;1.38;;;1.15;;
35530;SDS011;21637;53.352;-6.356;2023-11-18T05:18:13;1.98;;;0.90;;
35530;SDS011;21637;53.352;-6.356;2023-11-18T05:20:43;1.20;;;0.70;;
35530;SDS011;21637;53.352;-6.356;2023-11-18T05:23:09;0.75;;;0.57;;
35530;SDS011;21637;53.352;-6.356;2023-11-18T05:25:36;0.60;;;0.60;;
35530;SDS011;21637;53.352;-6.356;2023-11-18T05:28:04;1.50;;;0.70;;
35530;SDS011;21637;53.352;-6.356;2023-11-18T05:30:37;2.05;;;0.90;;
35530;SDS011;21637;53.352;-6.356;2023-11-18T05:33:04;1.10;;;0.82;;
35530;SDS011;21637;53.352;-6.356;2023-11-18T05:35:30;2.28;;;0.82;;
35530;SDS011;21637;53.352;-6.356;2023-11-18T05:38:00;2.97;;;1.00;;
35530;SDS011;21637;53.352;-6.356;2023-11-18T05:40:28;4.47;;;1.17;;
35530;SDS011;21637;53.352;-6.356;2023-11-18T05:42:55;2.55;;;1.02;;
35530;SDS011;21637;53.352;-6.356;2023-11-18T05:45:20;4.30;;;1.30;;
35530;SDS011;21637;53.352;-6.356;2023-11-18T05:47:56;3.45;;;1.02;;
35530;SDS011;21637;53.352;-6.356;2023-11-18T05:50:22;6.80;;;1.45;;
35530;SDS011;21637;53.352;-6.356;2023-11-18T05:52:51;6.10;;;1.73;;
35530;SDS011;21637;53.352;-6.356;2023-11-18T05:55:18;4.38;;;1.33;;
35530;SDS011;21637;53.352;-6.356;2023-11-18T05:57:44;6.93;;;1.55;;
35530;SDS011;21637;53.352;-6.356;2023-11-18T06:00:11;7.88;;;1.60;;
35530;SDS011;21637;53.352;-6.356;2023-11-18T06:02:40;11.30;;;1.90;;
35530;SDS011;21637;53.352;-6.356;2023-11-18T06:05:07;5.28;;;1.33;;
35530;SDS011;21637;53.352;-6.356;2023-11-18T06:07:33;5.93;;;1.85;;
35530;SDS011;21637;53.352;-6.356;2023-11-18T06:10:00;12.18;;;2.10;;
35530;SDS011;21637;53.352;-6.356;2023-11-18T06:12:30;8.27;;;1.90;;
35530;SDS011;21637;53.352;-6.356;2023-11-18T06:14:56;7.03;;;1.88;;
35530;SDS011;21637;53.352;-6.356;2023-11-18T06:17:22;8.10;;;2.20;;
35530;SDS011;21637;53.352;-6.356;2023-11-18T06:19:48;7.40;;;2.05;;
35530;SDS011;21637;53.352;-6.356;2023-11-18T06:22:14;8.55;;;1.70;;
35530;SDS011;21637;53.352;-6.356;2023-11-18T06:24:40;8.20;;;2.30;;
35530;SDS011;21637;53.352;-6.356;2023-11-18T06:27:06;9.32;;;1.85;;
35530;SDS011;21637;53.352;-6.356;2023-11-18T06:29:35;7.90;;;2.25;;
35530;SDS011;21637;53.352;-6.356;2023-11-18T06:32:01;7.65;;;1.83;;
35530;SDS011;21637;53.352;-6.356;2023-11-18T06:34:26;11.27;;;2.42;;
35530;SDS011;21637;53.352;-6.356;2023-11-18T06:36:52;9.07;;;2.50;;
35530;SDS011;21637;53.352;-6.356;2023-11-18T06:39:18;13.25;;;2.58;;
35530;SDS011;21637;53.352;-6.356;2023-11-18T06:41:56;9.63;;;2.63;;
35530;SDS011;21637;53.352;-6.356;2023-11-18T06:44:23;8.75;;;1.83;;
35530;SDS011;21637;53.352;-6.356;2023-11-18T06:46:49;15.95;;;2.70;;
35530;SDS011;21637;53.352;-6.356;2023-11-18T06:49:16;11.30;;;2.40;;
35530;SDS011;21637;53.352;-6.356;2023-11-18T06:51:42;13.60;;;2.80;;
35530;SDS011;21637;53.352;-6.356;2023-11-18T06:54:08;19.15;;;2.50;;
35530;SDS011;21637;53.352;-6.356;2023-11-18T06:56:39;13.10;;;2.47;;
35530;SDS011;21637;53.352;-6.356;2023-11-18T06:59:09;12.13;;;2.15;;
35530;SDS011;21637;53.352;-6.356;2023-11-18T07:01:37;15.43;;;2.60;;
35530;SDS011;21637;53.352;-6.356;2023-11-18T07:04:08;12.60;;;3.00;;
35530;SDS011;21637;53.352;-6.356;2023-11-18T07:06:34;11.10;;;2.30;;
35530;SDS011;21637;53.352;-6.356;2023-11-18T07:09:03;11.07;;;2.50;;
35530;SDS011;21637;53.352;-6.356;2023-11-18T07:11:37;15.65;;;3.22;;
35530;SDS011;21637;53.352;-6.356;2023-11-18T07:14:05;13.77;;;2.83;;
35530;SDS011;21637;53.352;-6.356;2023-11-18T07:16:34;12.30;;;2.22;;
35530;SDS011;21637;53.352;-6.356;2023-11-18T07:19:00;14.43;;;2.78;;
35530;SDS011;21637;53.352;-6.356;2023-11-18T07:21:28;14.68;;;2.83;;
35530;SDS011;21637;53.352;-6.356;2023-11-18T07:23:54;12.70;;;2.70;;
35530;SDS011;21637;53.352;-6.356;2023-11-18T07:26:20;13.70;;;2.70;;
35530;SDS011;21637;53.352;-6.356;2023-11-18T07:28:46;14.80;;;2.90;;
35530;SDS011;21637;53.352;-6.356;2023-11-18T07:31:12;13.07;;;3.15;;
35530;SDS011;21637;53.352;-6.356;2023-11-18T07:33:38;11.18;;;2.67;;
35530;SDS011;21637;53.352;-6.356;2023-11-18T07:36:03;17.48;;;2.90;;
35530;SDS011;21637;53.352;-6.356;2023-11-18T07:38:31;12.43;;;2.42;;
35530;SDS011;21637;53.352;-6.356;2023-11-18T07:40:58;10.75;;;2.97;;
35530;SDS011;21637;53.352;-6.356;2023-11-18T07:43:27;16.02;;;2.90;;
35530;SDS011;21637;53.352;-6.356;2023-11-18T07:45:53;21.17;;;3.28;;
35530;SDS011;21637;53.352;-6.356;2023-11-18T07:48:19;14.15;;;3.13;;
35530;SDS011;21637;53.352;-6.356;2023-11-18T07:50:46;17.52;;;3.20;;
35530;SDS011;21637;53.352;-6.356;2023-11-18T07:53:14;18.20;;;3.35;;
35530;SDS011;21637;53.352;-6.356;2023-11-18T07:55:41;13.85;;;2.75;;
35530;SDS011;21637;53.352;-6.356;2023-11-18T07:58:07;20.48;;;3.78;;
35530;SDS011;21637;53.352;-6.356;2023-11-18T08:00:38;21.73;;;3.45;;
35530;SDS011;21637;53.352;-6.356;2023-11-18T08:03:24;14.25;;;3.45;;
35530;SDS011;21637;53.352;-6.356;2023-11-18T08:05:52;14.30;;;3.05;;
35530;SDS011;21637;53.352;-6.356;2023-11-18T08:08:18;17.90;;;3.90;;
35530;SDS011;21637;53.352;-6.356;2023-11-18T08:10:44;15.10;;;3.60;;
35530;SDS011;21637;53.352;-6.356;2023-11-18T08:13:10;18.23;;;3.63;;
35530;SDS011;21637;53.352;-6.356;2023-11-18T08:15:38;13.65;;;3.50;;
35530;SDS011;21637;53.352;-6.356;2023-11-18T08:18:05;16.50;;;3.25;;
35530;SDS011;21637;53.352;-6.356;2023-11-18T08:20:31;16.08;;;3.20;;
35530;SDS011;21637;53.352;-6.356;2023-11-18T08:22:58;17.90;;;3.40;;
35530;SDS011;21637;53.352;-6.356;2023-11-18T08:25:25;16.40;;;4.20;;
35530;SDS011;21637;53.352;-6.356;2023-11-18T08:27:51;14.80;;;3.22;;
35530;SDS011;21637;53.352;-6.356;2023-11-18T08:30:17;10.35;;;2.88;;
35530;SDS011;21637;53.352;-6.356;2023-11-18T08:32:44;11.98;;;3.20;;
35530;SDS011;21637;53.352;-6.356;2023-11-18T08:35:11;15.18;;;3.70;;
35530;SDS011;21637;53.352;-6.356;2023-11-18T08:37:43;15.10;;;3.40;;
35530;SDS011;21637;53.352;-6.356;2023-11-18T08:40:13;16.42;;;3.67;;
35530;SDS011;21637;53.352;-6.356;2023-11-18T08:42:50;13.45;;;3.10;;
35530;SDS011;21637;53.352;-6.356;2023-11-18T08:47:47;18.98;;;3.47;;
35530;SDS011;21637;53.352;-6.356;2023-11-18T08:50:14;21.95;;;4.20;;
35530;SDS011;21637;53.352;-6.356;2023-11-18T08:52:43;16.58;;;3.28;;
35530;SDS011;21637;53.352;-6.356;2023-11-18T08:55:18;14.82;;;3.20;;
35530;SDS011;21637;53.352;-6.356;2023-11-18T08:57:50;16.58;;;3.58;;
35530;SDS011;21637;53.352;-6.356;2023-11-18T09:00:30;17.40;;;3.90;;
35530;SDS011;21637;53.352;-6.356;2023-11-18T09:03:18;21.52;;;3.65;;
35530;SDS011;21637;53.352;-6.356;2023-11-18T09:05:55;24.35;;;4.32;;
35530;SDS011;21637;53.352;-6.356;2023-11-18T09:11:08;27.35;;;4.18;;
35530;SDS011;21637;53.352;-6.356;2023-11-18T09:13:44;15.25;;;3.30;;
35530;SDS011;21637;53.352;-6.356;2023-11-18T09:16:34;28.23;;;4.57;;
35530;SDS011;21637;53.352;-6.356;2023-11-18T09:19:04;25.83;;;3.20;;
35530;SDS011;21637;53.352;-6.356;2023-11-18T09:21:31;17.20;;;3.78;;
35530;SDS011;21637;53.352;-6.356;2023-11-18T09:24:00;15.80;;;3.70;;
35530;SDS011;21637;53.352;-6.356;2023-11-18T09:26:32;16.75;;;3.38;;
35530;SDS011;21637;53.352;-6.356;2023-11-18T09:29:00;16.25;;;3.45;;
35530;SDS011;21637;53.352;-6.356;2023-11-18T09:31:29;23.17;;;3.95;;
35530;SDS011;21637;53.352;-6.356;2023-11-18T09:33:56;17.45;;;3.65;;
35530;SDS011;21637;53.352;-6.356;2023-11-18T09:36:32;21.52;;;3.65;;
35530;SDS011;21637;53.352;-6.356;2023-11-18T09:38:59;20.48;;;3.45;;
35530;SDS011;21637;53.352;-6.356;2023-11-18T09:41:25;21.50;;;3.80;;
35530;SDS011;21637;53.352;-6.356;2023-11-18T09:43:53;18.52;;;3.70;;
35530;SDS011;21637;53.352;-6.356;2023-11-18T09:46:28;16.15;;;3.85;;
35530;SDS011;21637;53.352;-6.356;2023-11-18T09:49:06;20.15;;;3.70;;
35530;SDS011;21637;53.352;-6.356;2023-11-18T09:51:58;21.23;;;4.10;;
35530;SDS011;21637;53.352;-6.356;2023-11-18T09:54:28;18.58;;;3.75;;
35530;SDS011;21637;53.352;-6.356;2023-11-18T09:57:07;21.92;;;3.70;;
35530;SDS011;21637;53.352;-6.356;2023-11-18T10:02:20;19.02;;;4.10;;
35530;SDS011;21637;53.352;-6.356;2023-11-18T10:04:48;46.03;;;5.82;;
35530;SDS011;21637;53.352;-6.356;2023-11-18T10:07:23;22.00;;;4.00;;
35530;SDS011;21637;53.352;-6.356;2023-11-18T10:09:54;21.00;;;4.32;;
35530;SDS011;21637;53.352;-6.356;2023-11-18T10:12:23;20.23;;;3.65;;
35530;SDS011;21637;53.352;-6.356;2023-11-18T10:14:53;23.42;;;4.57;;
35530;SDS011;21637;53.352;-6.356;2023-11-18T10:17:19;20.05;;;4.60;;
35530;SDS011;21637;53.352;-6.356;2023-11-18T10:22:23;18.77;;;3.78;;
35530;SDS011;21637;53.352;-6.356;2023-11-18T10:24:54;19.00;;;4.20;;
35530;SDS011;21637;53.352;-6.356;2023-11-18T10:27:23;22.15;;;4.93;;
35530;SDS011;21637;53.352;-6.356;2023-11-18T10:30:11;20.95;;;3.63;;
35530;SDS011;21637;53.352;-6.356;2023-11-18T10:32:44;20.30;;;4.00;;
35530;SDS011;21637;53.352;-6.356;2023-11-18T10:35:30;19.48;;;4.43;;
35530;SDS011;21637;53.352;-6.356;2023-11-18T10:38:02;20.73;;;3.83;;
35530;SDS011;21637;53.352;-6.356;2023-11-18T10:40:34;19.50;;;4.28;;
35530;SDS011;21637;53.352;-6.356;2023-11-18T10:43:05;18.13;;;3.67;;
35530;SDS011;21637;53.352;-6.356;2023-11-18T10:45:34;22.85;;;4.85;;
35530;SDS011;21637;53.352;-6.356;2023-11-18T10:48:07;20.58;;;4.43;;
35530;SDS011;21637;53.352;-6.356;2023-11-18T10:50:33;14.45;;;3.63;;
35530;SDS011;21637;53.352;-6.356;2023-11-18T10:53:00;19.38;;;4.43;;
35530;SDS011;21637;53.352;-6.356;2023-11-18T10:55:36;18.58;;;3.65;;
35530;SDS011;21637;53.352;-6.356;2023-11-18T10:58:03;16.40;;;3.42;;
35530;SDS011;21637;53.352;-6.356;2023-11-18T11:00:51;18.00;;;3.70;;
35530;SDS011;21637;53.352;-6.356;2023-11-18T11:03:21;16.70;;;3.95;;
35530;SDS011;21637;53.352;-6.356;2023-11-18T11:05:50;21.15;;;3.38;;
35530;SDS011;21637;53.352;-6.356;2023-11-18T11:08:17;13.75;;;3.33;;
35530;SDS011;21637;53.352;-6.356;2023-11-18T11:10:45;15.30;;;3.30;;
35530;SDS011;21637;53.352;-6.356;2023-11-18T11:13:13;11.95;;;3.20;;
35530;SDS011;21637;53.352;-6.356;2023-11-18T11:15:43;12.23;;;2.72;;
35530;SDS011;21637;53.352;-6.356;2023-11-18T11:18:14;14.45;;;2.88;;
35530;SDS011;21637;53.352;-6.356;2023-11-18T11:21:13;13.50;;;2.38;;
35530;SDS011;21637;53.352;-6.356;2023-11-18T11:24:23;12.02;;;2.67;;
35530;SDS011;21637;53.352;-6.356;2023-11-18T11:29:36;12.60;;;2.92;;
35530;SDS011;21637;53.352;-6.356;2023-11-18T11:34:53;15.98;;;3.63;;
35530;SDS011;21637;53.352;-6.356;2023-11-18T11:37:25;15.65;;;3.78;;
35530;SDS011;21637;53.352;-6.356;2023-11-18T11:39:52;15.73;;;3.25;;
35530;SDS011;21637;53.352;-6.356;2023-11-18T11:42:19;16.27;;;3.08;;
35530;SDS011;21637;53.352;-6.356;2023-11-18T11:44:50;14.35;;;3.45;;
35530;SDS011;21637;53.352;-6.356;2023-11-18T11:47:18;19.42;;;4.22;;
35530;SDS011;21637;53.352;-6.356;2023-11-18T11:49:50;20.67;;;3.58;;
35530;SDS011;21637;53.352;-6.356;2023-11-18T11:52:32;18.50;;;3.65;;
35530;SDS011;21637;53.352;-6.356;2023-11-18T11:55:12;10.70;;;2.70;;
35530;SDS011;21637;53.352;-6.356;2023-11-18T12:00:18;11.13;;;2.40;;
35530;SDS011;21637;53.352;-6.356;2023-11-18T12:02:48;14.77;;;2.75;;
35530;SDS011;21637;53.352;-6.356;2023-11-18T12:05:18;16.52;;;2.95;;
35530;SDS011;21637;53.352;-6.356;2023-11-18T12:07:52;20.13;;;3.38;;
35530;SDS011;21637;53.352;-6.356;2023-11-18T12:10:25;14.15;;;2.80;;
35530;SDS011;21637;53.352;-6.356;2023-11-18T12:13:09;20.80;;;3.78;;
35530;SDS011;21637;53.352;-6.356;2023-11-18T12:15:51;16.75;;;3.05;;
35530;SDS011;21637;53.352;-6.356;2023-11-18T12:18:30;18.02;;;4.18;;
35530;SDS011;21637;53.352;-6.356;2023-11-18T12:20:59;16.95;;;3.80;;
35530;SDS011;21637;53.352;-6.356;2023-11-18T12:23:29;15.65;;;3.72;;
35530;SDS011;21637;53.352;-6.356;2023-11-18T12:25:59;19.80;;;4.80;;
35530;SDS011;21637;53.352;-6.356;2023-11-18T12:28:28;19.00;;;4.38;;
35530;SDS011;21637;53.352;-6.356;2023-11-18T12:31:02;18.00;;;5.43;;
35530;SDS011;21637;53.352;-6.356;2023-11-18T12:42:06;16.88;;;4.13;;
35530;SDS011;21637;53.352;-6.356;2023-11-18T12:47:39;20.60;;;3.53;;
35530;SDS011;21637;53.352;-6.356;2023-11-18T12:50:10;23.95;;;3.92;;
35530;SDS011;21637;53.352;-6.356;2023-11-18T12:52:52;21.35;;;3.47;;
35530;SDS011;21637;53.352;-6.356;2023-11-18T12:55:20;20.23;;;3.47;;
35530;SDS011;21637;53.352;-6.356;2023-11-18T12:57:51;17.95;;;4.07;;
35530;SDS011;21637;53.352;-6.356;2023-11-18T13:00:19;21.00;;;3.67;;
35530;SDS011;21637;53.352;-6.356;2023-11-18T13:05:22;18.35;;;3.40;;
35530;SDS011;21637;53.352;-6.356;2023-11-18T13:07:54;20.47;;;4.40;;
35530;SDS011;21637;53.352;-6.356;2023-11-18T13:10:24;15.02;;;2.95;;
35530;SDS011;21637;53.352;-6.356;2023-11-18T13:12:52;18.83;;;5.72;;
35530;SDS011;21637;53.352;-6.356;2023-11-18T13:15:18;22.05;;;3.67;;
35530;SDS011;21637;53.352;-6.356;2023-11-18T13:18:00;16.77;;;3.70;;
35530;SDS011;21637;53.352;-6.356;2023-11-18T13:20:31;20.42;;;3.40;;
35530;SDS011;21637;53.352;-6.356;2023-11-18T13:23:00;19.73;;;4.22;;
35530;SDS011;21637;53.352;-6.356;2023-11-18T13:25:33;13.63;;;3.33;;
35530;SDS011;21637;53.352;-6.356;2023-11-18T13:28:00;17.92;;;3.65;;
35530;SDS011;21637;53.352;-6.356;2023-11-18T13:30:30;20.05;;;4.05;;
35530;SDS011;21637;53.352;-6.356;2023-11-18T13:32:55;18.42;;;4.43;;
35530;SDS011;21637;53.352;-6.356;2023-11-18T13:35:22;22.95;;;4.97;;
35530;SDS011;21637;53.352;-6.356;2023-11-18T13:37:49;25.63;;;4.78;;
35530;SDS011;21637;53.352;-6.356;2023-11-18T13:40:15;18.00;;;3.78;;
35530;SDS011;21637;53.352;-6.356;2023-11-18T13:42:44;21.83;;;4.40;;
35530;SDS011;21637;53.352;-6.356;2023-11-18T13:45:11;20.42;;;4.55;;
35530;SDS011;21637;53.352;-6.356;2023-11-18T13:48:02;21.05;;;4.85;;
35530;SDS011;21637;53.352;-6.356;2023-11-18T13:50:27;21.67;;;4.00;;
35530;SDS011;21637;53.352;-6.356;2023-11-18T13:55:26;26.05;;;5.10;;
35530;SDS011;21637;53.352;-6.356;2023-11-18T13:57:56;20.40;;;4.18;;
35530;SDS011;21637;53.352;-6.356;2023-11-18T14:00:26;17.83;;;3.90;;
35530;SDS011;21637;53.352;-6.356;2023-11-18T14:02:54;19.60;;;5.03;;
35530;SDS011;21637;53.352;-6.356;2023-11-18T14:05:21;24.10;;;4.28;;
35530;SDS011;21637;53.352;-6.356;2023-11-18T14:07:49;25.73;;;4.32;;
35530;SDS011;21637;53.352;-6.356;2023-11-18T14:10:20;28.90;;;5.13;;
35530;SDS011;21637;53.352;-6.356;2023-11-18T14:13:02;22.13;;;4.15;;
35530;SDS011;21637;53.352;-6.356;2023-11-18T14:15:36;23.75;;;5.10;;
35530;SDS011;21637;53.352;-6.356;2023-11-18T14:18:03;20.77;;;5.03;;
35530;SDS011;21637;53.352;-6.356;2023-11-18T14:20:29;28.20;;;4.53;;
35530;SDS011;21637;53.352;-6.356;2023-11-18T14:22:57;21.17;;;3.70;;
35530;SDS011;21637;53.352;-6.356;2023-11-18T14:25:26;20.27;;;4.07;;
35530;SDS011;21637;53.352;-6.356;2023-11-18T14:27:53;18.42;;;4.65;;
35530;SDS011;21637;53.352;-6.356;2023-11-18T14:30:18;27.42;;;4.65;;
35530;SDS011;21637;53.352;-6.356;2023-11-18T14:32:45;19.33;;;4.25;;
35530;SDS011;21637;53.352;-6.356;2023-11-18T14:35:12;16.85;;;5.00;;
35530;SDS011;21637;53.352;-6.356;2023-11-18T14:37:42;21.67;;;4.47;;
35530;SDS011;21637;53.352;-6.356;2023-11-18T14:40:14;25.20;;;5.22;;
35530;SDS011;21637;53.352;-6.356;2023-11-18T14:42:45;27.25;;;5.82;;
35530;SDS011;21637;53.352;-6.356;2023-11-18T14:45:13;19.45;;;5.32;;
35530;SDS011;21637;53.352;-6.356;2023-11-18T14:47:40;19.45;;;4.47;;
35530;SDS011;21637;53.352;-6.356;2023-11-18T14:50:06;24.23;;;4.72;;
35530;SDS011;21637;53.352;-6.356;2023-11-18T14:52:42;27.05;;;4.93;;
35530;SDS011;21637;53.352;-6.356;2023-11-18T14:55:10;21.33;;;4.45;;
35530;SDS011;21637;53.352;-6.356;2023-11-18T14:57:40;23.92;;;4.63;;
35530;SDS011;21637;53.352;-6.356;2023-11-18T15:00:09;25.08;;;4.40;;
35530;SDS011;21637;53.352;-6.356;2023-11-18T15:02:47;22.40;;;5.47;;
35530;SDS011;21637;53.352;-6.356;2023-11-18T15:05:16;31.02;;;5.47;;
35530;SDS011;21637;53.352;-6.356;2023-11-18T15:07:44;28.42;;;6.82;;
35530;SDS011;21637;53.352;-6.356;2023-11-18T15:10:10;26.70;;;5.88;;
35530;SDS011;21637;53.352;-6.356;2023-11-18T15:12:39;25.88;;;6.32;;
35530;SDS011;21637;53.352;-6.356;2023-11-18T15:15:07;29.30;;;5.85;;
35530;SDS011;21637;53.352;-6.356;2023-11-18T15:17:42;28.33;;;5.80;;